sensor_id;sensor_type;location;lat;lon;timestamp;temperature;humidity
3923;DHT22;1976;51.694;6.256;2022-08-18T00:01:20;20.10;99.90
3923;DHT22;1976;51.694;6.256;2022-08-18T00:03:47;20.10;99.90
3923;DHT22;1976;51.694;6.256;2022-08-18T00:06:13;20.10;99.90
3923;DHT22;1976;51.694;6.256;2022-08-18T00:08:38;20.10;99.90
3923;DHT22;1976;51.694;6.256;2022-08-18T00:11:05;20.10;99.90
3923;DHT22;1976;51.694;6.256;2022-08-18T00:13:31;20.00;99.90
3923;DHT22;1976;51.694;6.256;2022-08-18T00:15:57;20.00;99.90
3923;DHT22;1976;51.694;6.256;2022-08-18T00:18:23;19.90;99.90
3923;DHT22;1976;51.694;6.256;2022-08-18T00:20:49;19.90;99.90
3923;DHT22;1976;51.694;6.256;2022-08-18T00:23:14;20.00;99.90
3923;DHT22;1976;51.694;6.256;2022-08-18T00:25:40;19.90;99.90
3923;DHT22;1976;51.694;6.256;2022-08-18T00:28:06;19.90;99.90
3923;DHT22;1976;51.694;6.256;2022-08-18T00:30:33;19.90;99.90
3923;DHT22;1976;51.694;6.256;2022-08-18T00:33:00;19.80;99.90
3923;DHT22;1976;51.694;6.256;2022-08-18T00:35:27;19.80;99.90
3923;DHT22;1976;51.694;6.256;2022-08-18T00:37:55;19.80;99.90
3923;DHT22;1976;51.694;6.256;2022-08-18T00:40:28;19.80;99.90
3923;DHT22;1976;51.694;6.256;2022-08-18T00:42:57;19.80;99.90
3923;DHT22;1976;51.694;6.256;2022-08-18T00:45:36;19.80;99.90
3923;DHT22;1976;51.694;6.256;2022-08-18T00:48:07;19.80;99.90
3923;DHT22;1976;51.694;6.256;2022-08-18T00:50:42;19.80;99.90
3923;DHT22;1976;51.694;6.256;2022-08-18T00:55:51;19.90;99.90
3923;DHT22;1976;51.694;6.256;2022-08-18T00:58:44;19.90;99.90
3923;DHT22;1976;51.694;6.256;2022-08-18T01:01:12;19.90;99.90
3923;DHT22;1976;51.694;6.256;2022-08-18T01:03:39;19.90;99.90
3923;DHT22;1976;51.694;6.256;2022-08-18T01:08:54;19.90;99.90
3923;DHT22;1976;51.694;6.256;2022-08-18T01:11:20;19.90;99.90
3923;DHT22;1976;51.694;6.256;2022-08-18T01:13:46;19.80;99.90
3923;DHT22;1976;51.694;6.256;2022-08-18T01:16:12;19.80;99.90
3923;DHT22;1976;51.694;6.256;2022-08-18T01:18:56;19.70;99.90
3923;DHT22;1976;51.694;6.256;2022-08-18T01:21:46;19.70;99.90
3923;DHT22;1976;51.694;6.256;2022-08-18T01:24:24;19.60;99.90
3923;DHT22;1976;51.694;6.256;2022-08-18T01:27:12;19.60;99.90
3923;DHT22;1976;51.694;6.256;2022-08-18T01:29:40;19.60;99.90
3923;DHT22;1976;51.694;6.256;2022-08-18T01:32:06;19.60;99.90
3923;DHT22;1976;51.694;6.256;2022-08-18T01:34:31;19.60;99.90
3923;DHT22;1976;51.694;6.256;2022-08-18T01:36:57;19.60;99.90
3923;DHT22;1976;51.694;6.256;2022-08-18T01:39:24;19.70;99.90
3923;DHT22;1976;51.694;6.256;2022-08-18T01:41:49;19.70;99.90
3923;DHT22;1976;51.694;6.256;2022-08-18T01:44:15;19.70;99.90
3923;DHT22;1976;51.694;6.256;2022-08-18T01:46:41;19.80;99.90
3923;DHT22;1976;51.694;6.256;2022-08-18T01:49:08;19.80;99.90
3923;DHT22;1976;51.694;6.256;2022-08-18T01:51:35;19.80;99.90
3923;DHT22;1976;51.694;6.256;2022-08-18T01:54:03;19.80;99.90
3923;DHT22;1976;51.694;6.256;2022-08-18T01:56:29;19.90;99.90
3923;DHT22;1976;51.694;6.256;2022-08-18T01:58:56;19.90;99.90
3923;DHT22;1976;51.694;6.256;2022-08-18T02:01:22;19.80;99.90
3923;DHT22;1976;51.694;6.256;2022-08-18T02:03:51;19.80;99.90
3923;DHT22;1976;51.694;6.256;2022-08-18T02:06:19;19.80;99.90
3923;DHT22;1976;51.694;6.256;2022-08-18T02:08:46;19.80;99.90
3923;DHT22;1976;51.694;6.256;2022-08-18T02:11:12;19.70;99.90
3923;DHT22;1976;51.694;6.256;2022-08-18T02:13:38;19.70;99.90
3923;DHT22;1976;51.694;6.256;2022-08-18T02:16:05;19.80;99.90
3923;DHT22;1976;51.694;6.256;2022-08-18T02:18:33;19.80;99.90
3923;DHT22;1976;51.694;6.256;2022-08-18T02:21:07;19.90;99.90
3923;DHT22;1976;51.694;6.256;2022-08-18T02:23:33;19.80;99.90
3923;DHT22;1976;51.694;6.256;2022-08-18T02:26:03;19.80;99.90
3923;DHT22;1976;51.694;6.256;2022-08-18T02:28:29;19.90;99.90
3923;DHT22;1976;51.694;6.256;2022-08-18T02:30:55;19.80;99.90
3923;DHT22;1976;51.694;6.256;2022-08-18T02:33:21;19.80;99.90
3923;DHT22;1976;51.694;6.256;2022-08-18T02:35:52;19.70;99.90
3923;DHT22;1976;51.694;6.256;2022-08-18T02:38:18;19.80;99.90
3923;DHT22;1976;51.694;6.256;2022-08-18T02:40:44;19.80;99.90
3923;DHT22;1976;51.694;6.256;2022-08-18T02:43:11;19.80;99.90
3923;DHT22;1976;51.694;6.256;2022-08-18T02:45:37;19.90;99.90
3923;DHT22;1976;51.694;6.256;2022-08-18T02:48:05;19.90;99.90
3923;DHT22;1976;51.694;6.256;2022-08-18T02:50:31;19.90;99.90
3923;DHT22;1976;51.694;6.256;2022-08-18T02:52:57;19.90;99.90
3923;DHT22;1976;51.694;6.256;2022-08-18T02:55:23;19.90;99.90
3923;DHT22;1976;51.694;6.256;2022-08-18T02:57:51;19.90;99.90
3923;DHT22;1976;51.694;6.256;2022-08-18T03:00:18;19.90;99.90
3923;DHT22;1976;51.694;6.256;2022-08-18T03:02:45;19.90;99.90
3923;DHT22;1976;51.694;6.256;2022-08-18T03:05:11;20.00;99.90
3923;DHT22;1976;51.694;6.256;2022-08-18T03:07:38;20.00;99.90
3923;DHT22;1976;51.694;6.256;2022-08-18T03:10:04;20.00;99.90
3923;DHT22;1976;51.694;6.256;2022-08-18T03:12:30;20.00;99.90
3923;DHT22;1976;51.694;6.256;2022-08-18T03:14:55;20.00;99.90
3923;DHT22;1976;51.694;6.256;2022-08-18T03:17:21;20.10;99.90
3923;DHT22;1976;51.694;6.256;2022-08-18T03:19:46;20.10;99.90
3923;DHT22;1976;51.694;6.256;2022-08-18T03:22:12;20.10;99.90
3923;DHT22;1976;51.694;6.256;2022-08-18T03:24:39;20.10;99.90
3923;DHT22;1976;51.694;6.256;2022-08-18T03:27:06;20.10;99.90
3923;DHT22;1976;51.694;6.256;2022-08-18T03:29:33;20.10;99.90
3923;DHT22;1976;51.694;6.256;2022-08-18T03:32:04;20.20;99.90
3923;DHT22;1976;51.694;6.256;2022-08-18T03:34:30;20.20;99.90
3923;DHT22;1976;51.694;6.256;2022-08-18T03:36:56;20.30;99.90
3923;DHT22;1976;51.694;6.256;2022-08-18T03:39:22;20.30;99.90
3923;DHT22;1976;51.694;6.256;2022-08-18T03:41:50;20.30;99.90
3923;DHT22;1976;51.694;6.256;2022-08-18T03:44:19;20.30;99.90
3923;DHT22;1976;51.694;6.256;2022-08-18T03:46:45;20.30;99.90
3923;DHT22;1976;51.694;6.256;2022-08-18T03:49:11;20.30;99.90
3923;DHT22;1976;51.694;6.256;2022-08-18T03:51:38;20.30;99.90
3923;DHT22;1976;51.694;6.256;2022-08-18T03:54:05;20.30;99.90
3923;DHT22;1976;51.694;6.256;2022-08-18T03:56:33;20.30;99.90
3923;DHT22;1976;51.694;6.256;2022-08-18T03:59:05;20.40;99.90
3923;DHT22;1976;51.694;6.256;2022-08-18T04:01:35;20.40;99.90
3923;DHT22;1976;51.694;6.256;2022-08-18T04:04:05;20.40;99.90
3923;DHT22;1976;51.694;6.256;2022-08-18T04:06:41;20.50;99.90
3923;DHT22;1976;51.694;6.256;2022-08-18T04:09:11;20.50;99.90
3923;DHT22;1976;51.694;6.256;2022-08-18T04:11:38;20.50;99.90
3923;DHT22;1976;51.694;6.256;2022-08-18T04:14:08;20.60;99.90
3923;DHT22;1976;51.694;6.256;2022-08-18T04:16:35;20.60;99.90
3923;DHT22;1976;51.694;6.256;2022-08-18T04:19:03;20.70;99.90
3923;DHT22;1976;51.694;6.256;2022-08-18T04:21:35;20.70;99.90
3923;DHT22;1976;51.694;6.256;2022-08-18T04:24:01;20.80;99.90
3923;DHT22;1976;51.694;6.256;2022-08-18T04:26:40;20.80;99.90
3923;DHT22;1976;51.694;6.256;2022-08-18T04:29:08;20.80;99.90
3923;DHT22;1976;51.694;6.256;2022-08-18T04:31:34;20.80;99.90
3923;DHT22;1976;51.694;6.256;2022-08-18T04:34:00;20.80;99.90
3923;DHT22;1976;51.694;6.256;2022-08-18T04:36:27;20.80;99.90
3923;DHT22;1976;51.694;6.256;2022-08-18T04:38:53;20.80;99.90
3923;DHT22;1976;51.694;6.256;2022-08-18T04:41:19;20.80;99.90
3923;DHT22;1976;51.694;6.256;2022-08-18T04:43:47;20.80;99.90
3923;DHT22;1976;51.694;6.256;2022-08-18T04:46:14;20.80;99.90
3923;DHT22;1976;51.694;6.256;2022-08-18T04:48:40;20.80;99.90
3923;DHT22;1976;51.694;6.256;2022-08-18T04:51:11;20.70;99.90
3923;DHT22;1976;51.694;6.256;2022-08-18T04:53:38;20.70;99.90
3923;DHT22;1976;51.694;6.256;2022-08-18T04:56:31;20.70;99.90
3923;DHT22;1976;51.694;6.256;2022-08-18T04:59:03;20.60;99.90
3923;DHT22;1976;51.694;6.256;2022-08-18T05:01:34;20.60;99.90
3923;DHT22;1976;51.694;6.256;2022-08-18T05:04:00;20.70;99.90
3923;DHT22;1976;51.694;6.256;2022-08-18T05:06:27;20.60;99.90
3923;DHT22;1976;51.694;6.256;2022-08-18T05:09:00;20.60;99.90
3923;DHT22;1976;51.694;6.256;2022-08-18T05:11:28;20.50;99.90
3923;DHT22;1976;51.694;6.256;2022-08-18T05:13:57;20.40;99.90
3923;DHT22;1976;51.694;6.256;2022-08-18T05:16:24;20.40;99.90
3923;DHT22;1976;51.694;6.256;2022-08-18T05:18:51;20.40;99.90
3923;DHT22;1976;51.694;6.256;2022-08-18T05:21:18;20.40;99.90
3923;DHT22;1976;51.694;6.256;2022-08-18T05:23:45;20.50;99.90
3923;DHT22;1976;51.694;6.256;2022-08-18T05:26:11;20.40;99.90
3923;DHT22;1976;51.694;6.256;2022-08-18T05:28:39;20.40;99.90
3923;DHT22;1976;51.694;6.256;2022-08-18T05:31:26;20.30;99.90
3923;DHT22;1976;51.694;6.256;2022-08-18T05:33:53;20.30;99.90
3923;DHT22;1976;51.694;6.256;2022-08-18T05:39:20;20.30;99.90
3923;DHT22;1976;51.694;6.256;2022-08-18T05:44:33;20.40;99.90
3923;DHT22;1976;51.694;6.256;2022-08-18T05:49:29;20.40;99.90
3923;DHT22;1976;51.694;6.256;2022-08-18T05:52:02;20.40;99.90
3923;DHT22;1976;51.694;6.256;2022-08-18T05:54:40;20.50;99.90
3923;DHT22;1976;51.694;6.256;2022-08-18T05:57:30;20.50;99.90
3923;DHT22;1976;51.694;6.256;2022-08-18T05:59:57;20.60;99.90
3923;DHT22;1976;51.694;6.256;2022-08-18T06:02:31;20.60;99.90
3923;DHT22;1976;51.694;6.256;2022-08-18T06:05:05;20.70;99.90
3923;DHT22;1976;51.694;6.256;2022-08-18T06:10:12;20.80;99.90
3923;DHT22;1976;51.694;6.256;2022-08-18T06:12:50;20.80;99.90
3923;DHT22;1976;51.694;6.256;2022-08-18T06:18:28;21.00;99.90
3923;DHT22;1976;51.694;6.256;2022-08-18T06:24:07;21.30;99.90
3923;DHT22;1976;51.694;6.256;2022-08-18T06:26:56;21.40;99.90
3923;DHT22;1976;51.694;6.256;2022-08-18T06:32:52;21.70;99.90
3923;DHT22;1976;51.694;6.256;2022-08-18T06:35:37;21.90;99.90
3923;DHT22;1976;51.694;6.256;2022-08-18T06:38:18;22.00;99.90
3923;DHT22;1976;51.694;6.256;2022-08-18T06:43:36;22.30;99.90
3923;DHT22;1976;51.694;6.256;2022-08-18T06:46:20;22.40;99.90
3923;DHT22;1976;51.694;6.256;2022-08-18T06:48:59;22.40;99.90
3923;DHT22;1976;51.694;6.256;2022-08-18T06:51:28;22.40;99.90
3923;DHT22;1976;51.694;6.256;2022-08-18T06:54:00;22.50;99.90
3923;DHT22;1976;51.694;6.256;2022-08-18T07:01:38;22.60;99.90
3923;DHT22;1976;51.694;6.256;2022-08-18T07:04:04;22.50;99.90
3923;DHT22;1976;51.694;6.256;2022-08-18T07:06:30;22.50;99.90
3923;DHT22;1976;51.694;6.256;2022-08-18T07:09:20;22.50;99.90
3923;DHT22;1976;51.694;6.256;2022-08-18T07:12:07;22.40;99.90
3923;DHT22;1976;51.694;6.256;2022-08-18T07:14:51;22.40;99.90
3923;DHT22;1976;51.694;6.256;2022-08-18T07:17:23;22.40;99.90
3923;DHT22;1976;51.694;6.256;2022-08-18T07:20:08;22.50;99.90
3923;DHT22;1976;51.694;6.256;2022-08-18T07:23:22;22.60;99.90
3923;DHT22;1976;51.694;6.256;2022-08-18T07:25:52;22.80;99.90
3923;DHT22;1976;51.694;6.256;2022-08-18T07:28:40;22.80;99.90
3923;DHT22;1976;51.694;6.256;2022-08-18T07:34:35;22.80;99.90
3923;DHT22;1976;51.694;6.256;2022-08-18T07:40:09;22.90;99.90
3923;DHT22;1976;51.694;6.256;2022-08-18T07:43:02;23.00;99.90
3923;DHT22;1976;51.694;6.256;2022-08-18T07:45:39;23.10;99.90
3923;DHT22;1976;51.694;6.256;2022-08-18T07:48:18;23.20;99.90
3923;DHT22;1976;51.694;6.256;2022-08-18T07:51:12;23.40;99.90
3923;DHT22;1976;51.694;6.256;2022-08-18T08:04:59;24.30;99.90
3923;DHT22;1976;51.694;6.256;2022-08-18T08:07:34;24.50;99.90
3923;DHT22;1976;51.694;6.256;2022-08-18T08:12:31;25.00;99.90
3923;DHT22;1976;51.694;6.256;2022-08-18T08:20:38;25.30;99.90
3923;DHT22;1976;51.694;6.256;2022-08-18T08:26:19;25.40;99.90
3923;DHT22;1976;51.694;6.256;2022-08-18T08:28:57;25.70;99.90
3923;DHT22;1976;51.694;6.256;2022-08-18T08:31:48;26.50;99.90
3923;DHT22;1976;51.694;6.256;2022-08-18T08:37:05;28.30;99.80
3923;DHT22;1976;51.694;6.256;2022-08-18T08:39:44;28.80;98.20
3923;DHT22;1976;51.694;6.256;2022-08-18T08:42:50;28.90;98.10
3923;DHT22;1976;51.694;6.256;2022-08-18T08:45:22;28.70;98.10
3923;DHT22;1976;51.694;6.256;2022-08-18T08:48:03;28.70;97.60
3923;DHT22;1976;51.694;6.256;2022-08-18T08:50:37;28.30;97.80
3923;DHT22;1976;51.694;6.256;2022-08-18T08:53:33;27.90;98.40
3923;DHT22;1976;51.694;6.256;2022-08-18T08:56:06;27.60;99.10
3923;DHT22;1976;51.694;6.256;2022-08-18T09:01:04;27.20;99.70
3923;DHT22;1976;51.694;6.256;2022-08-18T09:06:45;27.20;99.90
3923;DHT22;1976;51.694;6.256;2022-08-18T09:12:02;27.70;99.90
3923;DHT22;1976;51.694;6.256;2022-08-18T09:25:49;28.60;98.60
3923;DHT22;1976;51.694;6.256;2022-08-18T09:36:37;28.50;97.60
3923;DHT22;1976;51.694;6.256;2022-08-18T09:42:02;28.20;98.10
3923;DHT22;1976;51.694;6.256;2022-08-18T09:52:56;27.70;98.60
3923;DHT22;1976;51.694;6.256;2022-08-18T09:58:18;27.40;99.10
3923;DHT22;1976;51.694;6.256;2022-08-18T10:00:44;27.30;99.30
3923;DHT22;1976;51.694;6.256;2022-08-18T10:03:18;27.10;99.40
3923;DHT22;1976;51.694;6.256;2022-08-18T10:06:11;27.10;99.50
3923;DHT22;1976;51.694;6.256;2022-08-18T10:08:54;27.00;99.70
3923;DHT22;1976;51.694;6.256;2022-08-18T10:11:45;27.10;99.90
3923;DHT22;1976;51.694;6.256;2022-08-18T10:14:32;27.10;99.90
3923;DHT22;1976;51.694;6.256;2022-08-18T10:22:54;27.40;99.20
3923;DHT22;1976;51.694;6.256;2022-08-18T10:25:35;27.50;99.20
3923;DHT22;1976;51.694;6.256;2022-08-18T10:28:02;27.40;99.10
3923;DHT22;1976;51.694;6.256;2022-08-18T10:33:08;27.50;99.00
3923;DHT22;1976;51.694;6.256;2022-08-18T10:38:37;27.60;98.90
3923;DHT22;1976;51.694;6.256;2022-08-18T10:44:13;27.90;97.60
3923;DHT22;1976;51.694;6.256;2022-08-18T10:46:42;28.00;97.30
3923;DHT22;1976;51.694;6.256;2022-08-18T10:52:02;28.30;97.00
3923;DHT22;1976;51.694;6.256;2022-08-18T11:00:20;32.60;92.80
3923;DHT22;1976;51.694;6.256;2022-08-18T11:03:04;35.00;89.50
3923;DHT22;1976;51.694;6.256;2022-08-18T11:05:34;36.90;83.00
3923;DHT22;1976;51.694;6.256;2022-08-18T11:08:03;38.60;77.20
3923;DHT22;1976;51.694;6.256;2022-08-18T11:10:39;40.10;73.50
3923;DHT22;1976;51.694;6.256;2022-08-18T11:20:53;43.60;59.20
3923;DHT22;1976;51.694;6.256;2022-08-18T11:23:38;44.90;53.50
3923;DHT22;1976;51.694;6.256;2022-08-18T11:26:16;44.90;54.00
3923;DHT22;1976;51.694;6.256;2022-08-18T11:28:42;45.50;53.40
3923;DHT22;1976;51.694;6.256;2022-08-18T11:31:08;45.70;48.80
3923;DHT22;1976;51.694;6.256;2022-08-18T11:33:39;45.70;49.40
3923;DHT22;1976;51.694;6.256;2022-08-18T11:36:06;44.80;49.70
3923;DHT22;1976;51.694;6.256;2022-08-18T11:38:31;43.50;49.80
3923;DHT22;1976;51.694;6.256;2022-08-18T11:41:19;43.50;50.00
3923;DHT22;1976;51.694;6.256;2022-08-18T11:43:58;44.80;49.20
3923;DHT22;1976;51.694;6.256;2022-08-18T11:46:37;46.10;47.30
3923;DHT22;1976;51.694;6.256;2022-08-18T11:49:19;46.90;45.30
3923;DHT22;1976;51.694;6.256;2022-08-18T11:52:17;47.50;45.10
3923;DHT22;1976;51.694;6.256;2022-08-18T11:54:47;47.20;44.60
3923;DHT22;1976;51.694;6.256;2022-08-18T11:59:54;47.90;42.40
3923;DHT22;1976;51.694;6.256;2022-08-18T12:02:21;48.80;41.70
3923;DHT22;1976;51.694;6.256;2022-08-18T12:04:51;49.60;39.70
3923;DHT22;1976;51.694;6.256;2022-08-18T12:07:34;50.30;37.80
3923;DHT22;1976;51.694;6.256;2022-08-18T12:10:22;51.00;37.70
3923;DHT22;1976;51.694;6.256;2022-08-18T12:12:50;51.80;36.70
3923;DHT22;1976;51.694;6.256;2022-08-18T12:17:44;52.90;34.10
3923;DHT22;1976;51.694;6.256;2022-08-18T12:20:11;52.30;33.40
3923;DHT22;1976;51.694;6.256;2022-08-18T12:22:40;50.60;33.60
3923;DHT22;1976;51.694;6.256;2022-08-18T12:25:10;48.80;35.10
3923;DHT22;1976;51.694;6.256;2022-08-18T12:27:37;48.00;36.00
3923;DHT22;1976;51.694;6.256;2022-08-18T12:30:04;46.60;36.80
3923;DHT22;1976;51.694;6.256;2022-08-18T12:32:31;44.70;38.50
3923;DHT22;1976;51.694;6.256;2022-08-18T12:34:58;43.00;39.90
3923;DHT22;1976;51.694;6.256;2022-08-18T12:37:26;40.80;42.00
3923;DHT22;1976;51.694;6.256;2022-08-18T12:39:52;40.70;42.60
3923;DHT22;1976;51.694;6.256;2022-08-18T12:42:19;40.50;43.10
3923;DHT22;1976;51.694;6.256;2022-08-18T12:44:45;41.00;43.00
3923;DHT22;1976;51.694;6.256;2022-08-18T12:47:15;41.00;42.70
3923;DHT22;1976;51.694;6.256;2022-08-18T12:49:41;40.30;44.20
3923;DHT22;1976;51.694;6.256;2022-08-18T12:52:07;40.40;44.70
3923;DHT22;1976;51.694;6.256;2022-08-18T12:54:33;41.70;43.90
3923;DHT22;1976;51.694;6.256;2022-08-18T12:57:01;43.30;41.70
3923;DHT22;1976;51.694;6.256;2022-08-18T12:59:28;44.90;40.50
3923;DHT22;1976;51.694;6.256;2022-08-18T13:01:53;47.70;37.10
3923;DHT22;1976;51.694;6.256;2022-08-18T13:04:19;46.30;35.80
3923;DHT22;1976;51.694;6.256;2022-08-18T13:06:51;46.30;36.40
3923;DHT22;1976;51.694;6.256;2022-08-18T13:09:18;44.20;38.00
3923;DHT22;1976;51.694;6.256;2022-08-18T13:11:44;42.50;40.20
3923;DHT22;1976;51.694;6.256;2022-08-18T13:14:10;39.90;42.70
3923;DHT22;1976;51.694;6.256;2022-08-18T13:16:38;37.40;45.10
3923;DHT22;1976;51.694;6.256;2022-08-18T13:19:06;36.70;45.70
3923;DHT22;1976;51.694;6.256;2022-08-18T13:21:32;35.50;48.50
3923;DHT22;1976;51.694;6.256;2022-08-18T13:23:58;34.20;50.10
3923;DHT22;1976;51.694;6.256;2022-08-18T13:26:35;33.30;52.90
3923;DHT22;1976;51.694;6.256;2022-08-18T13:29:02;32.40;55.20
3923;DHT22;1976;51.694;6.256;2022-08-18T13:31:28;31.70;57.10
3923;DHT22;1976;51.694;6.256;2022-08-18T13:33:54;31.20;58.10
3923;DHT22;1976;51.694;6.256;2022-08-18T13:36:25;30.60;59.30
3923;DHT22;1976;51.694;6.256;2022-08-18T13:38:51;30.30;61.70
3923;DHT22;1976;51.694;6.256;2022-08-18T13:41:19;30.10;63.40
3923;DHT22;1976;51.694;6.256;2022-08-18T13:43:45;30.00;65.20
3923;DHT22;1976;51.694;6.256;2022-08-18T13:46:14;29.80;66.40
3923;DHT22;1976;51.694;6.256;2022-08-18T13:48:41;29.60;68.00
3923;DHT22;1976;51.694;6.256;2022-08-18T13:51:11;29.50;69.70
3923;DHT22;1976;51.694;6.256;2022-08-18T13:53:39;29.50;68.60
3923;DHT22;1976;51.694;6.256;2022-08-18T13:56:05;29.50;70.10
3923;DHT22;1976;51.694;6.256;2022-08-18T13:58:31;29.40;71.00
3923;DHT22;1976;51.694;6.256;2022-08-18T14:01:02;29.30;72.50
3923;DHT22;1976;51.694;6.256;2022-08-18T14:03:29;29.30;74.20
3923;DHT22;1976;51.694;6.256;2022-08-18T14:05:56;29.30;74.80
3923;DHT22;1976;51.694;6.256;2022-08-18T14:08:24;29.30;73.50
3923;DHT22;1976;51.694;6.256;2022-08-18T14:10:53;29.30;74.30
3923;DHT22;1976;51.694;6.256;2022-08-18T14:13:21;29.50;73.10
3923;DHT22;1976;51.694;6.256;2022-08-18T14:15:51;29.50;73.80
3923;DHT22;1976;51.694;6.256;2022-08-18T14:18:16;29.50;75.30
3923;DHT22;1976;51.694;6.256;2022-08-18T14:20:42;29.30;75.90
3923;DHT22;1976;51.694;6.256;2022-08-18T14:23:26;29.30;77.60
3923;DHT22;1976;51.694;6.256;2022-08-18T14:26:10;29.20;77.70
3923;DHT22;1976;51.694;6.256;2022-08-18T14:28:54;29.10;78.50
3923;DHT22;1976;51.694;6.256;2022-08-18T14:31:20;29.00;77.90
3923;DHT22;1976;51.694;6.256;2022-08-18T14:33:47;29.00;79.80
3923;DHT22;1976;51.694;6.256;2022-08-18T14:36:14;29.10;80.30
3923;DHT22;1976;51.694;6.256;2022-08-18T14:38:40;29.30;79.00
3923;DHT22;1976;51.694;6.256;2022-08-18T14:41:07;29.80;79.30
3923;DHT22;1976;51.694;6.256;2022-08-18T14:43:34;29.90;78.10
3923;DHT22;1976;51.694;6.256;2022-08-18T14:46:01;31.10;74.70
3923;DHT22;1976;51.694;6.256;2022-08-18T14:48:27;32.20;72.30
3923;DHT22;1976;51.694;6.256;2022-08-18T14:50:55;32.30;70.80
3923;DHT22;1976;51.694;6.256;2022-08-18T14:53:24;32.10;70.50
3923;DHT22;1976;51.694;6.256;2022-08-18T14:55:51;32.50;67.80
3923;DHT22;1976;51.694;6.256;2022-08-18T14:58:22;32.50;66.60
3923;DHT22;1976;51.694;6.256;2022-08-18T15:00:53;32.60;68.30
3923;DHT22;1976;51.694;6.256;2022-08-18T15:03:20;32.80;68.30
3923;DHT22;1976;51.694;6.256;2022-08-18T15:05:46;33.00;67.80
3923;DHT22;1976;51.694;6.256;2022-08-18T15:08:11;33.20;66.30
3923;DHT22;1976;51.694;6.256;2022-08-18T15:10:37;33.30;66.00
3923;DHT22;1976;51.694;6.256;2022-08-18T15:13:03;33.40;67.70
3923;DHT22;1976;51.694;6.256;2022-08-18T15:15:29;33.40;65.40
3923;DHT22;1976;51.694;6.256;2022-08-18T15:17:56;33.50;64.40
3923;DHT22;1976;51.694;6.256;2022-08-18T15:20:24;33.40;65.50
3923;DHT22;1976;51.694;6.256;2022-08-18T15:22:50;32.90;66.10
3923;DHT22;1976;51.694;6.256;2022-08-18T15:25:35;32.30;67.50
3923;DHT22;1976;51.694;6.256;2022-08-18T15:28:07;31.90;67.90
3923;DHT22;1976;51.694;6.256;2022-08-18T15:30:34;31.50;67.70
3923;DHT22;1976;51.694;6.256;2022-08-18T15:33:02;31.30;68.60
3923;DHT22;1976;51.694;6.256;2022-08-18T15:35:28;31.00;70.30
3923;DHT22;1976;51.694;6.256;2022-08-18T15:37:54;30.80;71.10
3923;DHT22;1976;51.694;6.256;2022-08-18T15:40:22;30.70;72.90
3923;DHT22;1976;51.694;6.256;2022-08-18T15:42:53;30.50;73.40
3923;DHT22;1976;51.694;6.256;2022-08-18T15:45:39;30.80;74.00
3923;DHT22;1976;51.694;6.256;2022-08-18T15:48:05;31.20;73.80
3923;DHT22;1976;51.694;6.256;2022-08-18T15:50:31;31.50;72.60
3923;DHT22;1976;51.694;6.256;2022-08-18T15:52:59;31.90;72.80
3923;DHT22;1976;51.694;6.256;2022-08-18T15:55:29;32.30;72.30
3923;DHT22;1976;51.694;6.256;2022-08-18T15:57:56;32.60;71.10
3923;DHT22;1976;51.694;6.256;2022-08-18T16:00:24;33.20;68.70
3923;DHT22;1976;51.694;6.256;2022-08-18T16:02:52;33.20;69.20
3923;DHT22;1976;51.694;6.256;2022-08-18T16:05:22;33.80;67.50
3923;DHT22;1976;51.694;6.256;2022-08-18T16:07:49;34.30;66.60
3923;DHT22;1976;51.694;6.256;2022-08-18T16:10:17;34.50;65.50
3923;DHT22;1976;51.694;6.256;2022-08-18T16:12:44;34.60;64.60
3923;DHT22;1976;51.694;6.256;2022-08-18T16:15:10;34.80;64.10
3923;DHT22;1976;51.694;6.256;2022-08-18T16:17:36;34.90;63.80
3923;DHT22;1976;51.694;6.256;2022-08-18T16:20:04;35.00;64.30
3923;DHT22;1976;51.694;6.256;2022-08-18T16:22:30;35.00;62.90
3923;DHT22;1976;51.694;6.256;2022-08-18T16:24:57;34.80;61.50
3923;DHT22;1976;51.694;6.256;2022-08-18T16:27:23;34.60;62.60
3923;DHT22;1976;51.694;6.256;2022-08-18T16:29:49;34.30;62.70
3923;DHT22;1976;51.694;6.256;2022-08-18T16:32:15;34.10;62.90
3923;DHT22;1976;51.694;6.256;2022-08-18T16:34:40;33.80;63.40
3923;DHT22;1976;51.694;6.256;2022-08-18T16:37:07;33.50;63.90
3923;DHT22;1976;51.694;6.256;2022-08-18T16:39:34;33.10;65.30
3923;DHT22;1976;51.694;6.256;2022-08-18T16:42:00;32.80;66.70
3923;DHT22;1976;51.694;6.256;2022-08-18T16:44:25;32.60;67.40
3923;DHT22;1976;51.694;6.256;2022-08-18T16:46:51;32.50;66.90
3923;DHT22;1976;51.694;6.256;2022-08-18T16:49:17;32.30;66.50
3923;DHT22;1976;51.694;6.256;2022-08-18T16:51:44;31.90;68.90
3923;DHT22;1976;51.694;6.256;2022-08-18T16:54:10;31.90;69.50
3923;DHT22;1976;51.694;6.256;2022-08-18T16:56:36;31.70;69.50
3923;DHT22;1976;51.694;6.256;2022-08-18T16:59:02;31.50;69.20
3923;DHT22;1976;51.694;6.256;2022-08-18T17:01:46;31.30;69.50
3923;DHT22;1976;51.694;6.256;2022-08-18T17:04:31;31.10;70.10
3923;DHT22;1976;51.694;6.256;2022-08-18T17:07:01;30.90;72.10
3923;DHT22;1976;51.694;6.256;2022-08-18T17:09:29;30.70;73.50
3923;DHT22;1976;51.694;6.256;2022-08-18T17:11:55;30.50;73.60
3923;DHT22;1976;51.694;6.256;2022-08-18T17:14:24;30.30;74.50
3923;DHT22;1976;51.694;6.256;2022-08-18T17:16:51;30.20;75.30
3923;DHT22;1976;51.694;6.256;2022-08-18T17:19:24;30.10;76.20
3923;DHT22;1976;51.694;6.256;2022-08-18T17:21:50;29.90;77.20
3923;DHT22;1976;51.694;6.256;2022-08-18T17:24:16;29.90;77.60
3923;DHT22;1976;51.694;6.256;2022-08-18T17:30:06;29.60;79.20
3923;DHT22;1976;51.694;6.256;2022-08-18T17:32:45;29.40;80.10
3923;DHT22;1976;51.694;6.256;2022-08-18T17:35:23;29.20;81.30
3923;DHT22;1976;51.694;6.256;2022-08-18T17:37:54;28.90;82.40
3923;DHT22;1976;51.694;6.256;2022-08-18T17:40:39;28.60;84.10
3923;DHT22;1976;51.694;6.256;2022-08-18T17:43:18;28.50;85.70
3923;DHT22;1976;51.694;6.256;2022-08-18T17:45:51;28.40;87.40
3923;DHT22;1976;51.694;6.256;2022-08-18T17:48:26;28.30;89.20
3923;DHT22;1976;51.694;6.256;2022-08-18T17:51:17;28.10;89.00
3923;DHT22;1976;51.694;6.256;2022-08-18T17:57:18;27.80;90.80
3923;DHT22;1976;51.694;6.256;2022-08-18T18:00:19;27.80;91.30
3923;DHT22;1976;51.694;6.256;2022-08-18T18:02:45;27.70;91.70
3923;DHT22;1976;51.694;6.256;2022-08-18T18:05:16;27.70;92.10
3923;DHT22;1976;51.694;6.256;2022-08-18T18:10:10;27.60;92.40
3923;DHT22;1976;51.694;6.256;2022-08-18T18:12:37;27.60;92.50
3923;DHT22;1976;51.694;6.256;2022-08-18T18:15:08;27.50;92.70
3923;DHT22;1976;51.694;6.256;2022-08-18T18:17:36;27.50;93.00
3923;DHT22;1976;51.694;6.256;2022-08-18T18:20:15;27.40;93.20
3923;DHT22;1976;51.694;6.256;2022-08-18T18:22:46;27.30;93.50
3923;DHT22;1976;51.694;6.256;2022-08-18T18:25:29;27.20;93.70
3923;DHT22;1976;51.694;6.256;2022-08-18T18:27:56;27.10;94.10
3923;DHT22;1976;51.694;6.256;2022-08-18T18:30:23;27.00;94.60
3923;DHT22;1976;51.694;6.256;2022-08-18T18:33:02;26.80;95.10
3923;DHT22;1976;51.694;6.256;2022-08-18T18:35:49;26.70;95.40
3923;DHT22;1976;51.694;6.256;2022-08-18T18:38:32;26.60;95.80
3923;DHT22;1976;51.694;6.256;2022-08-18T18:41:02;26.50;96.40
3923;DHT22;1976;51.694;6.256;2022-08-18T18:43:39;26.40;97.40
3923;DHT22;1976;51.694;6.256;2022-08-18T18:52:02;26.10;97.70
3923;DHT22;1976;51.694;6.256;2022-08-18T18:57:57;25.80;98.30
3923;DHT22;1976;51.694;6.256;2022-08-18T19:00:39;25.70;98.60
3923;DHT22;1976;51.694;6.256;2022-08-18T19:03:21;25.60;98.80
3923;DHT22;1976;51.694;6.256;2022-08-18T19:14:34;25.00;99.90
3923;DHT22;1976;51.694;6.256;2022-08-18T19:17:07;24.80;99.90